createdAt,value
2017-08-15T00:01:39.815Z,4.40
2017-08-15T00:04:09.954Z,3.60
2017-08-15T00:06:40.362Z,3.70
2017-08-15T00:09:10.252Z,6.27
2017-08-15T00:11:40.482Z,4.10
2017-08-15T00:14:10.335Z,3.50
2017-08-15T00:16:40.564Z,3.63
2017-08-15T00:19:10.440Z,3.87
2017-08-15T00:21:40.705Z,3.80
2017-08-15T00:24:10.565Z,4.10
2017-08-15T00:26:40.805Z,3.73
2017-08-15T00:29:10.672Z,3.97
2017-08-15T00:31:40.957Z,4.20
2017-08-15T00:34:10.814Z,4.00
2017-08-15T00:36:40.689Z,3.17
2017-08-15T00:39:10.948Z,3.47
2017-08-15T00:41:40.805Z,3.53
2017-08-15T00:44:10.675Z,4.00
2017-08-15T00:46:40.943Z,4.40
2017-08-15T00:49:10.866Z,3.63
2017-08-15T00:51:40.761Z,3.73
2017-08-15T00:54:11.087Z,4.00
2017-08-15T00:56:40.933Z,4.40
2017-08-15T00:59:11.153Z,4.00
2017-08-15T01:01:41.064Z,3.60
2017-08-15T01:04:11.292Z,4.10
2017-08-15T01:06:41.202Z,5.00
2017-08-15T01:09:11.429Z,3.97
2017-08-15T01:11:41.341Z,3.60
2017-08-15T01:14:11.721Z,4.40
2017-08-15T01:16:41.582Z,4.40
2017-08-15T01:19:11.955Z,4.03
2017-08-15T01:21:41.803Z,3.90
2017-08-15T01:24:11.687Z,3.97
2017-08-15T01:26:42.010Z,4.33
2017-08-15T01:29:11.873Z,4.37
2017-08-15T01:31:41.754Z,4.20
2017-08-15T01:34:11.980Z,4.47
2017-08-15T01:36:41.846Z,4.23
2017-08-15T01:39:11.716Z,4.47
2017-08-15T01:41:41.991Z,4.20
2017-08-15T01:44:11.899Z,4.43
2017-08-15T01:46:42.235Z,4.10
2017-08-15T01:49:12.189Z,4.17
2017-08-15T01:51:42.417Z,3.93
2017-08-15T01:54:12.265Z,4.37
2017-08-15T01:56:42.497Z,4.83
2017-08-15T01:59:12.357Z,4.20
2017-08-15T02:01:42.587Z,4.70
2017-08-15T02:04:12.444Z,4.93
2017-08-15T02:06:42.630Z,4.50
2017-08-15T02:09:12.543Z,4.90
2017-08-15T02:11:42.807Z,4.80
2017-08-15T02:14:12.709Z,4.60
2017-08-15T02:16:42.900Z,4.40
2017-08-15T02:19:12.760Z,4.57
2017-08-15T02:21:42.640Z,4.30
2017-08-15T02:24:12.891Z,4.73
2017-08-15T02:26:42.817Z,4.47
2017-08-15T02:29:12.695Z,3.97
2017-08-15T02:31:42.928Z,4.53
2017-08-15T02:34:12.777Z,4.10
2017-08-15T02:36:42.655Z,4.60
2017-08-15T02:39:12.889Z,3.77
2017-08-15T02:41:42.749Z,4.53
2017-08-15T02:44:12.655Z,4.70
2017-08-15T02:46:42.924Z,4.30
2017-08-15T02:49:12.778Z,4.77
2017-08-15T02:51:42.670Z,4.50
2017-08-15T02:54:13.006Z,3.90
2017-08-15T02:56:42.895Z,4.57
2017-08-15T02:59:12.770Z,4.97
2017-08-15T03:01:42.993Z,4.70
2017-08-15T03:04:12.845Z,3.80
2017-08-15T03:06:42.722Z,4.43
2017-08-15T03:09:12.979Z,3.83
2017-08-15T03:11:42.848Z,3.70
2017-08-15T03:14:12.758Z,5.60
2017-08-15T03:16:42.985Z,4.07
2017-08-15T03:19:12.847Z,3.90
2017-08-15T03:21:42.754Z,4.47
2017-08-15T03:24:13.060Z,4.57
2017-08-15T03:26:42.954Z,5.07
2017-08-15T03:29:13.179Z,5.10
2017-08-15T03:31:43.046Z,4.90
2017-08-15T03:34:13.449Z,4.70
2017-08-15T03:36:43.301Z,5.23
2017-08-15T03:39:13.561Z,4.50
2017-08-15T03:41:43.406Z,5.47
2017-08-15T03:44:13.627Z,4.83
2017-08-15T03:46:43.493Z,5.60
2017-08-15T03:49:13.737Z,4.63
2017-08-15T03:51:43.627Z,4.97
2017-08-15T03:54:13.839Z,5.07
2017-08-15T03:56:43.681Z,5.10
2017-08-15T03:59:13.579Z,4.80
2017-08-15T04:01:43.757Z,5.50
2017-08-15T04:04:13.611Z,5.10
2017-08-15T04:06:43.891Z,5.17
2017-08-15T04:09:13.801Z,5.00
2017-08-15T04:11:43.686Z,5.10
2017-08-15T04:14:13.932Z,5.57
2017-08-15T04:16:43.845Z,6.20
2017-08-15T04:19:13.710Z,5.60
2017-08-15T04:21:44.060Z,5.50
2017-08-15T04:24:13.932Z,5.10
2017-08-15T04:26:44.117Z,5.10
2017-08-15T04:29:13.964Z,5.20
2017-08-15T04:31:44.191Z,5.87
2017-08-15T04:34:14.043Z,5.47
2017-08-15T04:36:44.366Z,5.00
2017-08-15T04:39:14.238Z,5.73
2017-08-15T04:41:44.525Z,5.60
2017-08-15T04:44:14.472Z,5.30
2017-08-15T04:46:44.794Z,6.27
2017-08-15T04:49:14.661Z,6.10
2017-08-15T04:51:44.952Z,5.47
2017-08-15T04:54:14.807Z,5.50
2017-08-15T04:56:44.680Z,5.70
2017-08-15T04:59:15.008Z,4.90
2017-08-15T05:01:44.911Z,5.27
2017-08-15T05:04:14.765Z,5.30
2017-08-15T05:06:45.044Z,5.37
2017-08-15T05:09:14.907Z,5.17
2017-08-15T05:11:45.199Z,5.27
2017-08-15T05:14:15.034Z,6.03
2017-08-15T05:16:45.325Z,6.27
2017-08-15T05:19:15.204Z,5.47
2017-08-15T05:21:45.482Z,6.57
2017-08-15T05:24:15.343Z,5.77
2017-08-15T05:26:45.589Z,6.07
2017-08-15T05:29:15.523Z,5.80
2017-08-15T05:31:45.808Z,5.40
2017-08-15T05:34:15.793Z,6.73
2017-08-15T05:36:46.063Z,6.53
2017-08-15T05:39:15.952Z,5.73
2017-08-15T05:41:46.197Z,5.53
2017-08-15T05:44:16.075Z,5.97
2017-08-15T05:46:46.337Z,5.80
2017-08-15T05:49:16.206Z,6.17
2017-08-15T05:51:46.421Z,6.33
2017-08-15T05:54:16.275Z,6.27
2017-08-15T05:56:46.620Z,6.13
2017-08-15T05:59:16.587Z,5.70
2017-08-15T06:01:46.802Z,5.73
2017-08-15T06:04:16.728Z,5.47
2017-08-15T06:06:46.597Z,5.80
2017-08-15T06:09:16.895Z,5.33
2017-08-15T06:11:46.745Z,5.67
2017-08-15T06:14:17.249Z,6.33
2017-08-15T06:16:47.122Z,6.03
2017-08-15T06:19:17.352Z,5.43
2017-08-15T06:21:47.229Z,5.93
2017-08-15T06:24:17.490Z,5.90
2017-08-15T06:26:47.459Z,5.90
2017-08-15T06:29:17.731Z,6.60
2017-08-15T06:31:47.598Z,6.70
2017-08-15T06:34:17.898Z,5.90
2017-08-15T06:36:47.745Z,6.00
2017-08-15T06:39:17.630Z,5.23
2017-08-15T06:41:47.941Z,6.17
2017-08-15T06:44:17.811Z,5.80
2017-08-15T06:46:47.876Z,5.70
2017-08-15T06:49:18.106Z,6.33
2017-08-15T06:51:47.971Z,6.80
2017-08-15T06:54:18.197Z,6.30
2017-08-15T06:56:48.113Z,5.63
2017-08-15T06:59:18.342Z,4.97
2017-08-15T07:01:48.242Z,5.37
2017-08-15T07:04:18.492Z,6.00
2017-08-15T07:06:48.325Z,5.13
2017-08-15T07:09:18.606Z,5.20
2017-08-15T07:11:48.452Z,5.50
2017-08-15T07:14:18.745Z,6.10
2017-08-15T07:16:48.603Z,5.23
2017-08-15T07:19:18.977Z,6.03
2017-08-15T07:21:48.857Z,5.60
2017-08-15T07:24:19.145Z,5.90
2017-08-15T07:26:49.046Z,5.53
2017-08-15T07:29:19.351Z,5.90
2017-08-15T07:31:49.193Z,4.67
2017-08-15T07:34:19.488Z,5.27
2017-08-15T07:36:49.347Z,5.50
2017-08-15T07:39:19.654Z,5.77
2017-08-15T07:41:49.495Z,5.30
2017-08-15T07:44:19.765Z,5.30
2017-08-15T07:46:49.623Z,6.20
2017-08-15T07:49:19.912Z,5.77
2017-08-15T07:51:49.757Z,5.87
2017-08-15T07:54:21.017Z,5.87
2017-08-15T07:56:51.107Z,5.87
2017-08-15T07:59:21.476Z,6.47
2017-08-15T08:01:51.348Z,5.83
2017-08-15T08:04:21.684Z,6.03
2017-08-15T08:06:51.572Z,6.10
2017-08-15T08:09:21.855Z,5.40
2017-08-15T08:11:51.728Z,5.20
2017-08-15T08:14:21.632Z,5.37
2017-08-15T08:16:51.828Z,5.10
2017-08-15T08:19:21.735Z,5.37
2017-08-15T08:21:51.604Z,5.23
2017-08-15T08:24:21.967Z,4.67
2017-08-15T08:26:51.838Z,5.60
2017-08-15T08:29:21.757Z,5.60
2017-08-15T08:31:51.995Z,6.00
2017-08-15T08:34:21.887Z,5.40
2017-08-15T08:36:51.762Z,5.20
2017-08-15T08:39:21.970Z,6.17
2017-08-15T08:41:51.837Z,5.60
2017-08-15T08:44:21.697Z,5.27
2017-08-15T08:46:51.881Z,5.43
2017-08-15T08:49:21.746Z,5.67
2017-08-15T08:51:51.621Z,4.73
2017-08-15T08:54:21.850Z,5.87
2017-08-15T08:56:51.736Z,5.50
2017-08-15T08:59:21.629Z,5.30
2017-08-15T09:01:51.911Z,6.37
2017-08-15T09:04:21.842Z,5.47
2017-08-15T09:06:51.711Z,5.60
2017-08-15T09:09:22.154Z,5.47
2017-08-15T09:11:52.143Z,5.90
2017-08-15T09:14:22.466Z,5.93
2017-08-15T09:16:52.337Z,5.00
2017-08-15T09:19:22.695Z,6.37
2017-08-15T09:21:52.550Z,6.10
2017-08-15T09:24:22.985Z,5.33
2017-08-15T09:26:52.847Z,5.87
2017-08-15T09:29:23.107Z,5.33
2017-08-15T09:31:52.981Z,4.97
2017-08-15T09:34:23.233Z,6.50
2017-08-15T09:36:53.113Z,5.73
2017-08-15T09:39:23.375Z,5.60
2017-08-15T09:41:53.269Z,5.30
2017-08-15T09:44:23.601Z,6.00
2017-08-15T09:46:53.456Z,5.10
2017-08-15T09:49:23.752Z,5.20
2017-08-15T09:51:53.629Z,6.20
2017-08-15T09:54:23.873Z,5.50
2017-08-15T09:56:53.749Z,4.80
2017-08-15T09:59:23.722Z,5.70
2017-08-15T10:01:54.155Z,5.20
2017-08-15T10:04:24.016Z,5.53
2017-08-15T10:06:54.253Z,4.73
2017-08-15T10:09:24.540Z,5.10
2017-08-15T10:11:54.914Z,5.07
2017-08-15T10:14:24.779Z,5.70
2017-08-15T10:16:55.055Z,5.67
2017-08-15T10:19:24.921Z,5.50
2017-08-15T10:21:55.190Z,5.70
2017-08-15T10:24:25.046Z,5.70
2017-08-15T10:26:55.269Z,5.17
2017-08-15T10:29:25.125Z,5.03
2017-08-15T10:31:55.329Z,4.37
2017-08-15T10:34:25.186Z,5.40
2017-08-15T10:36:55.651Z,5.37
2017-08-15T10:39:25.501Z,5.27
2017-08-15T10:41:55.816Z,5.33
2017-08-15T10:44:25.688Z,5.73
2017-08-15T10:46:55.904Z,5.33
2017-08-15T10:49:25.824Z,5.03
2017-08-15T10:51:55.715Z,5.27
2017-08-15T10:54:26.037Z,4.53
2017-08-15T10:56:55.951Z,5.40
2017-08-15T10:59:26.171Z,5.00
2017-08-15T11:01:56.031Z,5.63
2017-08-15T11:04:26.435Z,4.73
2017-08-15T11:06:56.317Z,5.03
2017-08-15T11:09:26.591Z,4.63
2017-08-15T11:11:56.481Z,4.77
2017-08-15T11:14:26.778Z,5.03
2017-08-15T11:16:56.634Z,4.57
2017-08-15T11:19:26.910Z,5.10
2017-08-15T11:21:56.777Z,4.77
2017-08-15T11:24:26.716Z,3.97
2017-08-15T11:26:56.930Z,4.70
2017-08-15T11:29:26.789Z,4.70
2017-08-15T11:31:56.671Z,4.90
2017-08-15T11:34:26.904Z,5.70
2017-08-15T11:36:56.759Z,5.93
2017-08-15T11:39:26.642Z,5.10
2017-08-15T11:41:56.842Z,4.23
2017-08-15T11:44:26.753Z,4.73
2017-08-15T11:46:56.626Z,5.07
2017-08-15T11:49:26.849Z,4.43
2017-08-15T11:51:56.718Z,5.13
2017-08-15T11:54:26.600Z,4.03
2017-08-15T11:56:56.955Z,4.70
2017-08-15T11:59:26.810Z,4.60
2017-08-15T12:01:56.762Z,4.40
2017-08-15T12:04:27.087Z,4.83
2017-08-15T12:06:56.942Z,4.90
2017-08-15T12:09:27.196Z,4.20
2017-08-15T12:11:57.069Z,4.67
2017-08-15T12:14:27.463Z,4.83
2017-08-15T12:16:57.425Z,3.93
2017-08-15T12:19:27.670Z,4.13
2017-08-15T12:21:57.531Z,5.23
2017-08-15T12:24:27.903Z,3.90
2017-08-15T12:26:57.774Z,4.47
2017-08-15T12:29:27.735Z,4.60
2017-08-15T12:31:58.169Z,4.10
2017-08-15T12:34:28.027Z,4.63
2017-08-15T12:36:58.405Z,4.77
2017-08-15T12:39:28.245Z,4.47
2017-08-15T12:41:58.551Z,5.00
2017-08-15T12:44:28.410Z,4.80
2017-08-15T12:46:58.732Z,4.20
2017-08-15T12:49:29.467Z,5.03
2017-08-15T12:51:59.836Z,4.67
2017-08-15T12:54:29.716Z,3.97
2017-08-15T12:56:59.969Z,5.10
2017-08-15T12:59:29.815Z,4.70
2017-08-15T13:01:59.697Z,5.07
2017-08-15T13:04:29.919Z,5.27
2017-08-15T13:06:59.868Z,4.77
2017-08-15T13:09:29.781Z,4.90
2017-08-15T13:12:00.141Z,4.20
2017-08-15T13:14:30.046Z,5.40
2017-08-15T13:17:00.326Z,5.00
2017-08-15T13:19:30.210Z,5.57
2017-08-15T13:22:00.433Z,4.90
2017-08-15T13:24:30.308Z,5.20
2017-08-15T13:27:00.674Z,5.50
2017-08-15T13:29:30.526Z,5.10
2017-08-15T13:32:00.769Z,5.17
2017-08-15T13:34:30.668Z,4.90
2017-08-15T13:37:00.865Z,5.20
2017-08-15T13:39:30.788Z,5.27
2017-08-15T13:42:00.723Z,5.57
2017-08-15T13:44:31.047Z,5.07
2017-08-15T13:47:00.904Z,4.97
2017-08-15T13:49:30.826Z,5.30
2017-08-15T13:52:01.139Z,5.57
2017-08-15T13:54:31.028Z,4.30
2017-08-15T13:57:01.254Z,5.50
2017-08-15T13:59:31.146Z,4.97
2017-08-15T14:02:01.378Z,5.27
2017-08-15T14:04:31.258Z,4.10
2017-08-15T14:07:01.493Z,4.63
2017-08-15T14:09:31.481Z,4.47
2017-08-15T14:12:01.698Z,4.50
2017-08-15T14:14:31.574Z,3.73
2017-08-15T14:17:01.911Z,4.27
2017-08-15T14:19:31.766Z,3.90
2017-08-15T14:22:01.702Z,4.20
2017-08-15T14:24:31.973Z,4.43
2017-08-15T14:27:01.823Z,4.80
2017-08-15T14:29:31.718Z,4.10
2017-08-15T14:32:01.922Z,4.13
2017-08-15T14:34:31.898Z,4.00
2017-08-15T14:37:02.148Z,3.87
2017-08-15T14:39:32.009Z,3.70
2017-08-15T14:42:02.317Z,4.37
2017-08-15T14:44:32.168Z,3.83
2017-08-15T14:47:02.401Z,5.00
2017-08-15T14:49:32.278Z,3.70
2017-08-15T14:52:02.587Z,4.17
2017-08-15T14:54:32.496Z,4.57
2017-08-15T14:57:02.912Z,4.20
2017-08-15T14:59:32.803Z,3.73
2017-08-15T15:02:02.670Z,3.93
2017-08-15T15:04:33.015Z,3.83
2017-08-15T15:07:02.871Z,3.83
2017-08-15T15:09:32.745Z,4.07
2017-08-15T15:12:03.090Z,4.70
2017-08-15T15:14:32.983Z,4.30
2017-08-15T15:17:03.219Z,4.73
2017-08-15T15:19:33.079Z,3.90
2017-08-15T15:22:03.455Z,4.70
2017-08-15T15:24:33.292Z,5.03
2017-08-15T15:27:03.600Z,3.83
2017-08-15T15:29:33.465Z,4.80
2017-08-15T15:32:03.712Z,4.33
2017-08-15T15:34:33.587Z,4.10
2017-08-15T15:37:03.871Z,4.40
2017-08-15T15:39:33.750Z,5.10
2017-08-15T15:42:03.632Z,4.00
2017-08-15T15:44:33.916Z,4.70
2017-08-15T15:47:03.850Z,4.40
2017-08-15T15:49:33.743Z,4.63
2017-08-15T15:52:04.042Z,4.77
2017-08-15T15:54:33.910Z,6.00
2017-08-15T15:57:03.779Z,4.43
2017-08-15T15:59:35.393Z,3.87
2017-08-15T16:02:05.253Z,4.00
2017-08-15T16:04:35.519Z,3.70
2017-08-15T16:07:05.764Z,3.37
2017-08-15T16:09:35.815Z,3.87
2017-08-15T16:12:06.176Z,4.47
2017-08-15T16:14:36.034Z,4.00
2017-08-15T16:17:06.281Z,3.67
2017-08-15T16:19:36.155Z,4.00
2017-08-15T16:22:06.424Z,4.00
2017-08-15T16:24:36.314Z,3.33
2017-08-15T16:27:06.555Z,3.70
2017-08-15T16:29:37.526Z,3.13
2017-08-15T16:32:07.820Z,3.57
2017-08-15T16:34:37.750Z,4.93
2017-08-15T16:37:07.970Z,3.40
2017-08-15T16:39:38.402Z,3.60
2017-08-15T16:42:09.612Z,3.40
2017-08-15T16:44:39.508Z,4.20
2017-08-15T16:47:09.729Z,3.60
2017-08-15T16:49:39.587Z,3.57
2017-08-15T16:52:09.972Z,3.20
2017-08-15T16:54:39.836Z,3.53
2017-08-15T16:57:09.835Z,3.50
2017-08-15T16:59:40.142Z,3.80
2017-08-15T17:02:10.823Z,3.67
2017-08-15T17:04:41.124Z,3.70
2017-08-15T17:07:11.041Z,3.60
2017-08-15T17:09:41.462Z,3.53
2017-08-15T17:12:11.326Z,3.53
2017-08-15T17:14:41.662Z,3.80
2017-08-15T17:17:11.597Z,3.80
2017-08-15T17:19:41.917Z,3.43
2017-08-15T17:22:11.789Z,3.43
2017-08-15T17:24:41.682Z,3.50
2017-08-15T17:27:12.074Z,3.60
2017-08-15T17:29:41.915Z,5.30
2017-08-15T17:32:12.252Z,3.90
2017-08-15T17:34:42.156Z,3.67
2017-08-15T17:37:12.423Z,3.77
2017-08-15T17:39:42.332Z,4.43
2017-08-15T17:42:12.677Z,4.03
2017-08-15T17:44:42.561Z,3.97
2017-08-15T17:47:12.785Z,4.67
2017-08-15T17:49:42.750Z,4.43
2017-08-15T17:52:13.035Z,5.50
2017-08-15T17:54:44.986Z,5.70
2017-08-15T17:57:15.330Z,6.43
2017-08-15T17:59:47.051Z,6.00
2017-08-15T18:02:17.509Z,5.60
2017-08-15T18:04:47.390Z,5.67
2017-08-15T18:07:17.638Z,5.20
2017-08-15T18:09:47.670Z,4.50
2017-08-15T18:12:17.986Z,4.13
2017-08-15T18:14:47.967Z,4.00
2017-08-15T18:17:18.328Z,4.00
2017-08-15T18:19:48.201Z,4.33
2017-08-15T18:22:18.556Z,4.20
2017-08-15T18:24:48.485Z,4.27
2017-08-15T18:27:18.874Z,5.03
2017-08-15T18:29:48.824Z,4.93
2017-08-15T18:32:19.167Z,4.60
2017-08-15T18:34:49.150Z,4.80
2017-08-15T18:37:20.319Z,4.60
2017-08-15T18:39:50.302Z,5.60
2017-08-15T18:42:20.706Z,4.70
2017-08-15T18:44:50.699Z,5.50
2017-08-15T18:47:21.014Z,5.90
2017-08-15T18:49:50.995Z,5.60
2017-08-15T18:52:21.375Z,5.50
2017-08-15T18:54:51.368Z,5.50
2017-08-15T18:57:21.704Z,7.67
2017-08-15T18:59:51.705Z,7.03
2017-08-15T19:02:22.183Z,6.90
2017-08-15T19:04:52.169Z,6.67
2017-08-15T19:07:22.653Z,8.03
2017-08-15T19:09:52.649Z,13.57
2017-08-15T19:12:23.026Z,10.43
2017-08-15T19:14:53.026Z,7.93
2017-08-15T19:17:23.352Z,9.20
2017-08-15T19:19:53.485Z,9.80
2017-08-15T19:22:23.920Z,9.47
2017-08-15T19:24:53.886Z,10.40
2017-08-15T19:27:24.207Z,9.80
2017-08-15T19:29:54.186Z,8.30
2017-08-15T19:32:25.555Z,6.43
2017-08-15T19:34:55.544Z,8.87
2017-08-15T19:37:26.002Z,5.80
2017-08-15T19:39:56.018Z,5.27
2017-08-15T19:42:26.523Z,6.70
2017-08-15T19:44:56.478Z,7.10
2017-08-15T19:47:26.864Z,9.43
2017-08-15T19:49:56.798Z,8.10
2017-08-15T19:52:27.247Z,8.50
2017-08-15T19:54:57.214Z,9.63
2017-08-15T19:57:27.700Z,8.90
2017-08-15T19:59:57.733Z,9.17
2017-08-15T20:02:28.341Z,8.67
2017-08-15T20:04:58.311Z,8.60
2017-08-15T20:07:28.703Z,9.60
2017-08-15T20:09:58.690Z,9.13
2017-08-15T20:12:29.131Z,8.00
2017-08-15T20:14:59.138Z,8.30
2017-08-15T20:17:29.586Z,7.90
2017-08-15T20:19:59.567Z,6.97
2017-08-15T20:22:29.936Z,7.20
2017-08-15T20:24:59.885Z,7.53
2017-08-15T20:27:29.840Z,6.77
2017-08-15T20:30:00.238Z,8.10
2017-08-15T20:32:30.192Z,7.60
2017-08-15T20:35:00.542Z,7.53
2017-08-15T20:37:30.515Z,6.07
2017-08-15T20:40:00.782Z,5.70
2017-08-15T20:42:30.749Z,5.93
2017-08-15T20:45:01.146Z,6.17
2017-08-15T20:47:31.016Z,6.23
2017-08-15T20:50:01.340Z,5.63
2017-08-15T20:52:31.233Z,5.70
2017-08-15T20:55:01.600Z,5.40
2017-08-15T20:57:31.464Z,6.60
2017-08-15T21:00:01.729Z,6.20
2017-08-15T21:02:31.598Z,5.40
2017-08-15T21:05:01.787Z,5.93
2017-08-15T21:07:31.664Z,7.30
2017-08-15T21:10:01.585Z,6.43
2017-08-15T21:12:31.809Z,7.27
2017-08-15T21:15:01.642Z,7.13
2017-08-15T21:17:32.072Z,7.60
2017-08-15T21:20:01.947Z,7.10
2017-08-15T21:22:32.161Z,7.53
2017-08-15T21:25:02.055Z,8.00
2017-08-15T21:27:32.304Z,8.00
2017-08-15T21:30:02.277Z,7.50
2017-08-15T21:32:32.549Z,8.20
2017-08-15T21:35:02.448Z,8.07
2017-08-15T21:37:32.658Z,9.30
2017-08-15T21:40:02.547Z,10.13
2017-08-15T21:42:32.807Z,9.30
2017-08-15T21:45:02.687Z,10.17
2017-08-15T21:47:33.063Z,9.73
2017-08-15T21:50:02.963Z,8.60
2017-08-15T21:52:33.183Z,8.50
2017-08-15T21:55:03.054Z,8.20
2017-08-15T21:57:33.312Z,7.97
2017-08-15T22:00:03.186Z,7.60
